Weather observations for the past three days for
Phifer Airfield - Wheatland
Metric (Imperial)
Date Time (mdt) Wind (kph) Vis. (km) Weather Sky Cond. Temperature (ºC) Relative Humidity Wind Chill (°C) Heat Index (°C) Pressure Precipitation (cm)
Air Dwpt 6 hour altimeter (cm) sea level (mb) 1 hr 3 hr 6 hr
Max. Min.
15 16:35 NE 15 16.09 Fair CLR 31.9 6.7 21% 30 76.28 0.0
15 16:15 N 19 G 31 16.09 Fair CLR 29 8.1 27% 28 76.3 0.0
15 15:55 N 30 G 44 16.09 Partly Cloudy SCT110 29.9 8.1 26% 28 76.3 0.0
15 15:35 NW 19 G 26 16.09 Partly Cloudy SCT110 31.7 4.6 18% 30 76.38 0.0
15 15:15 S 15 16.09 Fair CLR 31.4 5.7 20% 29 76.33 0.0
15 14:55 SW 15 G 44 16.09 Light Rain SCT030 SCT039 BKN110 27.8 8 29% 27 76.35 0.0
15 14:35 SW 13 16.09 Partly Cloudy SCT110 32.4 3 15% 30 76.38 0.0
15 14:15 E 6 16.09 Fair CLR 34.2 3.2 14% 32 76.35 0.0
15 13:55 Calm 16.09 Fair CLR 34 3.6 15% 32 76.38 0.0
15 13:35 Calm 16.09 Fair CLR 32.2 3.1 16% 30 76.4 0.0
15 13:15 NW 6 16.09 Fair CLR 32.3 3.6 16% 30 76.43 0.0
15 12:55 N 7 16.09 Fair CLR 33.6 3.5 15% 31 76.43 0.0
15 12:35 N 9 16.09 Fair CLR 33 3.4 15% 31 76.45 0.0
15 12:15 Calm 16.09 Fair CLR 32 3.8 17% 30 76.48 0.0
15 11:55 E 9 16.09 Fair CLR 31.5 4.4 32.5 21.9 18% 29 76.48 0.0
15 11:35 SE 7 16.09 Fair CLR 32.1 3 16% 30 76.5 0.0
15 11:15 Calm 16.09 Fair CLR 30.3 3.9 19% 28 76.5 0.0
15 10:55 N 6 16.09 Fair CLR 31 4.8 19% 29 76.56 0.0
15 10:35 N 7 16.09 Fair CLR 30.3 4.6 20% 28 76.56 0.0
15 10:15 N 9 16.09 Fair CLR 29.9 4.9 20% 28 76.56 0.0
15 09:55 N 13 16.09 Fair CLR 29.6 4.7 21% 28 76.56 0.0
15 09:35 N 15 16.09 Fair CLR 29 5.1 22% 28 76.58 0.0
15 09:15 N 15 16.09 Fair CLR 28.5 5 22% 27 76.58 0.0
15 08:55 N 17 G 26 16.09 Fair CLR 27.9 4.9 23% 27 76.58 0.0
15 08:35 N 17 16.09 Fair CLR 27.5 4.9 24% 27 76.58 0.0
15 08:15 N 9 16.09 Fair CLR 27.1 5.4 25% 26 76.58 0.0
15 07:55 N 13 16.09 Fair CLR 26.5 5.5 26% 26 76.56 0.0
15 07:35 N 6 16.09 Fair CLR 26.2 5.4 26% 26 76.56 0.0
15 07:15 W 6 16.09 Fair CLR 25.3 5 27% 25 76.53 0.0
15 06:55 W 6 16.09 Fair CLR 23.8 4.8 29% 76.5 0.0
15 06:35 NW 9 16.09 Fair CLR 24 4.5 28% 25 76.48 0.0
15 06:15 W 11 16.09 Fair CLR 22 5.8 35% 76.48 0.0
15 05:55 N 6 16.09 Fair CLR 22.4 5.8 27 20.8 34% 76.45 0.0
15 05:35 W 7 16.09 Fair CLR 23.1 5.9 33% 76.43 0.0
15 05:15 W 9 16.09 Fair CLR 23.8 5.8 31% 76.4 0.0
15 04:55 NW 7 16.09 Fair CLR 23.6 6.2 33% 76.4 0.0
15 04:35 W 19 G 31 16.09 Fair CLR 25.3 5.6 28% 25 76.38 0.0
15 04:15 W 7 16.09 Fair CLR 24.5 5.3 29% 25 76.38 0.0
15 03:55 W 7 16.09 Fair CLR 25.1 5.1 28% 25 76.35 0.0
15 03:35 W 13 16.09 Fair CLR 24.9 6 30% 25 76.35 0.0
15 03:15 W 11 16.09 Fair CLR 25.2 5.7 29% 25 76.35 0.0
15 02:55 W 9 16.09 Fair CLR 23.8 6.1 32% 76.33 0.0
15 02:35 SW 6 16.09 Fair CLR 22.8 5.9 34% 76.35 0.0
15 02:15 Calm 16.09 Fair CLR 20.8 6.5 40% 76.35 0.0
15 01:55 Calm 16.09 Fair CLR 21 6.7 40% 76.35 0.0
15 01:35 Calm 16.09 Fair CLR 22.2 7.1 38% 76.35 0.0
15 01:15 Calm 16.09 Fair CLR 24.4 6 31% 25 76.35 0.0
15 00:55 SW 7 16.09 Fair CLR 27 4.4 23% 26 76.38 0.0
15 00:35 SW 15 16.09 Fair CLR 26.8 4.9 25% 26 76.38 0.0
15 00:15 SW 15 16.09 Fair CLR 26.5 5.4 26% 26 76.35 0.0
14 23:55 SW 9 16.09 Fair CLR 26.7 5 33 26 25% 26 76.35 0.0
14 23:35 SW 15 16.09 Fair CLR 26.6 5.9 27% 26 76.38 0.0
14 23:15 SW 9 16.09 Fair CLR 26.6 6.6 28% 26 76.4 0.0
14 22:55 S 11 16.09 Fair CLR 26.3 6.5 28% 26 76.38 0.0
14 22:35 SW 9 16.09 Fair CLR 26 6.7 29% 26 76.38 0.0
14 22:15 S 6 16.09 Fair CLR 26 6.6 29% 26 76.4 0.0
14 21:55 SE 11 16.09 Fair CLR 26 7 30% 26 76.38 0.0
14 21:35 Calm 16.09 Fair CLR 27 6.6 27% 26 76.38 0.0
14 21:15 N 7 16.09 Fair CLR 28.1 6.1 25% 27 76.35 0.0
14 20:55 N 13 16.09 Fair CLR 28.6 5.9 24% 27 76.4 0.0
14 20:35 N 19 G 39 16.09 Fair CLR 29.6 5.2 21% 28 76.4 0.0
14 20:15 SW 9 16.09 Fair CLR 28.9 5.1 22% 27 76.35 0.0
14 19:55 S 11 16.09 Fair CLR 30.5 4 19% 29 76.33 0.0
14 19:35 S 9 16.09 Fair CLR 30.5 5.5 21% 29 76.33 0.0
14 19:15 S 7 16.09 Fair CLR 32 5.3 19% 30 76.33 0.0
14 18:55 SE 7 16.09 Fair CLR 32.8 5.1 18% 31 76.33 0.0
14 18:35 Calm 16.09 Fair CLR 32.7 3.3 16% 30 76.33 0.0
14 18:15 Calm 16.09 Fair CLR 32.6 3 15% 30 76.35 0.0
14 17:55 Calm 16.09 Fair CLR 32.2 4.3 38.6 32 17% 30 76.38 0.0
14 17:35 Calm 16.09 Fair CLR 32 4.2 17% 30 76.4 0.0
14 17:15 NW 6 16.09 Fair CLR 32.9 2.8 15% 31 76.4 0.0
14 16:55 NW 6 16.09 Fair CLR 34 1.4 13% 32 76.4 0.0
14 16:35 N 7 16.09 Partly Cloudy SCT100 34.4 0.4 11% 32 76.4 0.0
14 16:15 W 24 G 35 16.09 Mostly Cloudy SCT043 SCT075 BKN110 33.2 1.9 14% 31 76.45 0.0
14 15:55 NW 17 16.09 Fair CLR 35.5 0.2 11% 33 76.4 0.0
14 15:35 NE 7 16.09 Fair CLR 36.7 -0.5 9% 34 76.38 0.0
14 15:15 Calm 16.09 Fair CLR 36 -0.4 10% 33 76.38 0.0
14 14:55 Calm 16.09 Fair CLR 35.7 -0.1 10% 33 76.38 0.0
14 14:35 NE 9 16.09 Fair CLR 36.2 0 10% 33 76.38 0.0
14 14:15 NW 11 16.09 Fair CLR 37.3 -1.1 9% 34 76.38 0.0
14 13:55 W 11 16.09 Fair CLR 37.2 -0.8 9% 34 76.38 0.0
14 13:35 SW 9 16.09 Fair CLR 38 -0.6 9% 35 76.4 0.0
14 13:15 SW 6 16.09 Fair CLR 38 -0.7 9% 35 76.4 0.0
14 12:55 Calm 16.09 Fair CLR 38 -0.7 9% 35 76.43 0.0
14 12:35 Calm 16.09 Fair CLR 37.9 0.3 9% 35 76.43 0.0
14 12:15 E 6 16.09 Fair CLR 37.2 0.1 9% 34 76.48 0.0
14 11:55 NE 6 16.09 Fair CLR 36 2.3 36 24.1 12% 33 76.5 0.0
14 11:35 NW 6 16.09 Fair CLR 35.1 2.6 13% 33 76.53 0.0
14 11:15 Calm 16.09 Fair CLR 33.8 2.4 14% 31 76.56 0.0
14 10:55 NW 6 16.09 Fair CLR 33.4 3.3 15% 31 76.56 0.0
14 10:35 Calm 16.09 Fair CLR 32 4 17% 30 76.56 0.0
14 10:15 Calm 16.09 Fair CLR 30.8 6.2 21% 29 76.58 0.0
14 09:55 E 6 16.09 Fair CLR 29.9 6.5 23% 28 76.58 0.0
14 09:35 Calm 16.09 Fair CLR 28.4 6 24% 27 76.58 0.0
14 09:15 NE 9 16.09 Fair CLR 26.8 8.2 31% 26 76.61 0.0
14 08:55 E 9 16.09 Fair CLR 25.6 9 35% 26 76.61 0.0
14 08:35 NE 9 16.09 Fair CLR 24.1 10.1 41% 25 76.61 0.0
14 08:15 NE 11 16.09 Fair CLR 25.2 8.5 35% 26 76.61 0.0
14 07:55 W 6 16.09 Fair CLR 28.7 2.9 19% 27 76.61 0.0
14 07:35 SW 6 16.09 Fair CLR 27.5 2.5 20% 26 76.58 0.0
14 07:15 SW 11 16.09 Fair CLR 26.7 2.1 20% 26 76.56 0.0
14 06:55 SW 11 16.09 Fair CLR 26.2 1.6 20% 26 76.56 0.0
14 06:35 SW 7 16.09 Fair CLR 25 1.8 22% 25 76.56 0.0
14 06:15 W 9 16.09 Fair CLR 24.3 1.9 23% 25 76.5 0.0
14 05:55 SW 22 16.09 Fair CLR 24.6 1.7 27.1 22.3 22% 25 76.48 0.0
14 05:35 SW 17 16.09 Fair CLR 25.1 1.7 22% 25 76.48 0.0
14 05:15 SW 20 16.09 Fair CLR 25.6 1.6 21% 25 76.45 0.0
14 04:55 SW 19 16.09 Fair CLR 24.8 2.5 23% 25 76.45 0.0
14 04:35 SW 19 16.09 Fair CLR 25.6 2 22% 25 76.48 0.0
14 04:15 SW 19 G 26 16.09 Fair CLR 24.3 2.6 24% 25 76.48 0.0
14 03:55 S 9 16.09 Fair CLR 23.8 3.3 26% 76.45 0.0
14 03:35 Calm 16.09 Fair CLR 23.4 3.7 28% 76.45 0.0
14 03:15 SW 6 16.09 Fair CLR 25.4 3.3 24% 25 76.43 0.0
14 02:55 SW 13 16.09 Fair CLR 25.4 3 23% 25 76.43 0.0
14 02:35 SW 15 16.09 Fair CLR 26.1 1.9 21% 26 76.43 0.0
14 02:15 SW 9 G 15 16.09 Fair CLR 25.9 2.4 22% 25 76.43 0.0
14 01:55 SW 20 G 28 16.09 Fair CLR 26.8 1.7 20% 26 76.45 0.0
14 01:35 W 13 16.09 Fair CLR 24.6 2.8 24% 25 76.48 0.0
14 01:15 Calm 16.09 Fair CLR 24.6 3.4 25% 25 76.48 0.0
14 00:55 SW 7 16.09 Fair CLR 24.6 2.8 24% 25 76.48 0.0
14 00:35 S 7 16.09 Fair CLR 26.4 1.6 20% 26 76.48 0.0
14 00:15 Calm 16.09 Fair CLR 25.3 2.6 23% 25 76.5 0.0
13 23:55 S 7 16.09 Fair CLR 26 2.7 36.8 25.8 22% 26 76.48 0.0
13 23:35 SW 13 16.09 Fair CLR 26.4 2.6 21% 26 76.5 0.0
13 23:15 S 11 16.09 Fair CLR 27.1 3 21% 26 76.48 0.0
13 22:55 S 15 16.09 Fair CLR 27.6 2.5 20% 26 76.5 0.0
13 22:35 S 19 16.09 Fair CLR 28.6 1.8 18% 27 76.53 0.0
13 22:15 S 13 16.09 Fair CLR 29.5 -0.1 15% 28 76.56 0.0
13 21:55 S 9 16.09 Fair CLR 28.5 0.5 16% 27 76.56 0.0
13 21:35 S 15 16.09 Partly Cloudy SCT120 30.1 0 14% 28 76.56 0.0
13 21:15 S 15 16.09 Partly Cloudy SCT120 31.1 -0.1 13% 29 76.56 0.0
13 20:55 S 17 G 30 16.09 Fair CLR 32.5 -0.9 12% 30 76.53 0.0
13 20:35 S 6 16.09 Partly Cloudy SCT120 32.2 -0.6 12% 30 76.5 0.0
13 20:15 SW 17 16.09 Fair CLR 31.3 0.7 14% 29 76.5 0.0
13 19:55 S 6 16.09 Fair CLR 30.7 1 15% 29 76.48 0.0
13 19:35 S 11 16.09 Fair CLR 32 0.2 13% 30 76.43 0.0
13 19:15 SE 13 16.09 Fair CLR 33.1 0 12% 31 76.43 0.0
13 18:55 E 11 16.09 Fair CLR 35 -0.9 10% 32 76.43 0.0
13 18:35 E 9 16.09 Fair CLR 35.1 -1.8 9% 32 76.43 0.0
13 18:15 E 13 16.09 Fair CLR 36 -2 9% 33 76.43 0.0
13 17:55 S 19 G 28 16.09 Fair CLR 36.8 -1.1 38.3 34 9% 34 76.43 0.0
13 17:35 S 9 16.09 Fair CLR 35 0 11% 32 76.45 0.0
13 17:15 Calm 16.09 Fair CLR 36 -2.1 9% 33 76.43 0.0
13 16:55 Calm 16.09 Fair CLR 36.2 -0.2 10% 33 76.43 0.0
13 16:35 Calm 16.09 Fair CLR 36.7 -0.7 9% 34 76.43 0.0
13 16:15 Calm 16.09 Fair CLR 37.2 0 9% 34 76.45 0.0
13 15:55 NE 9 16.09 Fair CLR 37.5 0 9% 35 76.48 0.0
13 15:35 N 9 16.09 Fair CLR 38 0 9% 35 76.48 0.0
13 15:15 NW 7 16.09 Fair CLR 37.7 0.1 9% 35 76.5 0.0
13 14:55 NE 9 16.09 Fair CLR 37.2 0.2 10% 34 76.5 0.0
13 14:35 N 9 16.09 Fair CLR 37.4 0.5 10% 34 76.53 0.0
13 14:15 N 6 G 15 16.09 Fair CLR 37.2 -0.2 9% 34 76.53 0.0
13 13:55 NW 17 G 26 16.09 Fair CLR 36.8 2.2 11% 34 76.56 0.0
13 13:35 N 15 16.09 Fair CLR 36.6 1.8 11% 34 76.56 0.0
13 13:15 NW 6 16.09 Fair CLR 35.7 2.6 12% 33 76.58 0.0
13 12:55 Calm 16.09 Fair CLR 35.4 3.1 13% 33 76.61 0.0
13 12:35 N 9 16.09 Fair CLR 35.5 3.4 13% 33 76.61 0.0
13 12:15 Calm 16.09 Fair CLR 34.4 2.5 13% 32 76.61 0.0
13 11:55 NE 7 16.09 Fair CLR 34.2 2.9 34.2 19.2 14% 32 76.61 0.0
13 11:35 SE 6 16.09 Fair CLR 33.3 3 15% 31 76.66 0.0
13 11:15 S 7 16.09 Fair CLR 33 2.9 15% 31 76.66 0.0
13 10:55 S 13 16.09 Fair CLR 32.2 3.5 16% 30 76.66 0.0
13 10:35 E 7 16.09 Fair CLR 31 5.8 20% 29 76.66 0.0
13 10:15 E 11 16.09 Fair CLR 29.4 9.7 29% 28 76.66 0.0
13 09:55 Calm 16.09 Fair CLR 28.4 10.3 32% 28 76.68 0.0
13 09:35 Calm 16.09 Fair CLR 26.7 11.2 38% 27 76.68 0.0
13 09:15 W 6 16.09 Fair CLR 26.2 11.9 41% 26 76.68 0.0
13 08:55 W 6 16.09 Fair CLR 25.4 13 46% 26 76.71 0.0
13 08:35 SW 11 16.09 Fair CLR 25 12.5 46% 26 76.71 0.0
13 08:15 SW 11 16.09 Fair CLR 24.8 11.7 44% 26 76.68 0.0
13 07:55 Calm 16.09 Fair CLR 23.1 11.3 48% 76.68 0.0
13 07:35 Calm 16.09 Fair CLR 21.5 10.4 49% 76.71 0.0
13 07:15 S 6 16.09 Fair CLR 20.7 10.3 51% 76.68 0.0
13 06:55 SW 6 16.09 Fair CLR 20.3 13.7 66% 76.68 0.0
13 06:35 S 6 16.09 Fair CLR 19.6 13.7 69% 76.66 0.0
13 06:15 E 6 16.09 Fair CLR 19.8 13.4 67% 76.66 0.0
13 05:55 Calm 16.09 Fair CLR 20.1 13.4 24.9 19.5 66% 76.63 0.0
13 05:35 S 11 16.09 Fair CLR 19.5 13.5 68% 76.61 0.0
13 05:15 S 9 16.09 Fair CLR 20.1 13.6 66% 76.58 0.0
13 04:55 S 7 16.09 Fair CLR 20.3 14.1 68% 76.58 0.0
13 04:35 S 7 16.09 Fair CLR 21 14.4 66% 76.56 0.0
13 04:15 S 11 16.09 Fair CLR 21.6 14.7 65% 76.53 0.0
13 03:55 S 9 16.09 Fair CLR 21.7 14.5 64% 76.53 0.0
13 03:35 SE 17 16.09 Fair CLR 22 14.3 62% 76.5 0.0
13 03:15 SE 20 16.09 Fair CLR 21.7 14.1 62% 76.48 0.0
13 02:55 SE 20 16.09 Fair CLR 21.8 13.5 59% 76.48 0.0
13 02:35 E 22 G 31 16.09 Fair CLR 22 12.4 55% 76.48 0.0
13 02:15 E 17 G 30 16.09 Fair CLR 22.6 11.1 48% 76.5 0.0
13 01:55 E 30 G 37 16.09 Fair CLR 22.6 11 48% 76.48 0.0
13 01:35 NE 11 16.09 Fair CLR 23.4 10.4 44% 76.5 0.0
13 01:15 E 15 16.09 Fair CLR 24.8 8.2 35% 25 76.48 0.0
13 00:55 E 7 16.09 Fair CLR 22.7 8.6 41% 76.48 0.0
13 00:35 SE 6 16.09 Fair CLR 22 8.2 41% 76.43 0.0
13 00:15 S 13 16.09 Fair CLR 23.6 8 37% 76.4 0.0
12 23:55 S 13 16.09 Fair CLR 24.5 7.6 36.7 23.1 34% 25 76.4 0.0
12 23:35 S 19 16.09 Fair CLR 24.8 8.1 35% 25 76.4 0.0
12 23:15 S 17 16.09 Fair CLR 24.1 9.8 40% 25 76.4 0.0
12 22:55 SE 15 16.09 Fair CLR 24.2 11.4 45% 25 76.38 0.0
12 22:35 S 13 16.09 Fair CLR 26 11.2 40% 26 76.38 0.0
12 22:15 S 15 16.09 Fair CLR 26.6 11.5 39% 27 76.38 0.0
12 21:55 SE 13 16.09 Fair CLR 26.5 11.7 40% 27 76.38 0.0
12 21:35 SE 11 16.09 Fair CLR 26.2 11.5 40% 26 76.38 0.0
12 21:15 SE 9 16.09 Fair CLR 27.5 10.3 34% 27 76.35 0.0
12 20:55 SE 11 16.09 Fair CLR 28.5 8.9 29% 27 76.35 0.0
12 20:35 SE 11 16.09 Fair CLR 29.6 7.2 24% 28 76.33 0.0
12 20:15 SE 11 16.09 Fair CLR 30.8 4.4 19% 29 76.33 0.0
12 19:55 SE 11 16.09 Fair CLR 32.4 2.7 15% 30 76.33 0.0
12 19:35 SE 15 16.09 Fair CLR 33.5 2.9 14% 31 76.33 0.0
12 19:15 E 17 16.09 Fair CLR 34.3 3 14% 32 76.3 0.0
12 18:55 SE 15 16.09 Fair CLR 35 2.9 13% 32 76.3 0.0
12 18:35 E 15 16.09 Fair CLR 35.5 3.2 13% 33 76.3 0.0
12 18:15 E 19 16.09 Fair CLR 36.2 3.2 13% 34 76.28 0.0
12 17:55 E 13 16.09 Fair CLR 36.8 3.1 37.5 30.4 12% 34 76.28 0.0
12 17:35 NE 7 16.09 Fair CLR 36.5 2.5 12% 34 76.28 0.0
12 17:15 E 7 16.09 Fair CLR 36.7 2.2 11% 34 76.28 0.0
Date Time (mdt) Wind (kph) Vis. (km) Weather Sky Cond. Air Dwpt Max. Min. Relative Humidity Wind Chill (°C) Heat Index (°C) altimeter (cm) sea level (mb) 1 hr 3 hr 6 hr
6 hour
Temperature (ºC) Pressure Precipitation (cm)